Capitol Logistics 403


KSEA
Seattle-Tacoma International Airport
Seattle, Washington, US
KLAX
Los Angeles International Airport
Los Angeles, California, US

Route Details

Aircraft Information
Primary: Boeing 747-400BCF
Backup: Boeing 777-200LRF
Route Data
Distance: 831nm
Sched. Duration: 2h 06m
Avg. Duration: 2h 00m (-6m)
Times Flown: 14
Recm'd Route: SUMMA1 SUMMA JINMO Q7 JAGWA BURGL IRNMN2
Planned Altitude: 39,000ft
Origin Wx: KSEA 280053Z 36005KT 10SM BKN075 BKN200 06/02 A2957 RMK AO2 SLP023 T00610022
Dest. Wx: KLAX 280053Z 15007KT 10SM FEW050 BKN150 13/05 A3007 RMK AO2 SLP181 T01280050
Notes:

Financial History
Total Freight: 1,888,181lbs
Average Load: 134,870lbs/flt
Fuel Used: 538,652lbs
Avg. Fuel Used: 38,475lbs/flt
Fuel Expense: $603,290
Avg. Fuel Expense: $43,092
Avg. Fuel Cost: $1.12/lbs
Total Gross Income: $2,498,130
Pilot Pay: $3,086
Total Expenses: $270,526
Total Revenue: $1,616,789
Average Revenue: $178,437.85